createdAt,value
2022-10-07T00:00:29.130Z,89.03
2022-10-07T00:02:55.432Z,88.29
2022-10-07T00:05:22.164Z,88.45
2022-10-07T00:07:48.840Z,89.12
2022-10-07T00:10:15.183Z,89.22
2022-10-07T00:12:41.549Z,89.64
2022-10-07T00:15:08.786Z,89.66
2022-10-07T00:17:35.581Z,89.33
2022-10-07T00:20:02.346Z,88.99
2022-10-07T00:22:28.648Z,89.35
2022-10-07T00:24:55.591Z,88.65
2022-10-07T00:27:21.910Z,88.23
2022-10-07T00:29:48.333Z,87.86
2022-10-07T00:32:15.230Z,88.63
2022-10-07T00:34:41.521Z,87.97
2022-10-07T00:37:07.845Z,89.16
2022-10-07T00:39:34.657Z,89.64
2022-10-07T00:42:01.149Z,89.93
2022-10-07T00:44:37.069Z,89.97
2022-10-07T00:47:32.480Z,89.73
2022-10-07T00:50:07.296Z,89.16
2022-10-07T00:52:41.836Z,89.70
2022-10-07T00:55:16.416Z,89.83
2022-10-07T00:57:44.851Z,89.05
2022-10-07T01:00:12.060Z,89.43
2022-10-07T01:02:39.817Z,88.76
2022-10-07T01:05:09.032Z,88.72
2022-10-07T01:07:36.836Z,89.10
2022-10-07T01:10:04.853Z,89.06
2022-10-07T01:12:37.488Z,89.08
2022-10-07T01:15:20.031Z,89.11
2022-10-07T01:17:59.096Z,88.73
2022-10-07T01:20:33.131Z,89.21
2022-10-07T01:23:17.951Z,89.47
2022-10-07T01:26:14.646Z,89.53
2022-10-07T01:28:47.024Z,88.73
2022-10-07T01:31:18.367Z,88.74
2022-10-07T01:33:47.868Z,89.27
2022-10-07T01:36:17.375Z,89.16
2022-10-07T01:38:51.891Z,88.73
2022-10-07T01:41:19.962Z,88.31
2022-10-07T01:43:47.989Z,88.57
2022-10-07T01:46:20.086Z,88.68
2022-10-07T01:48:47.228Z,88.80
2022-10-07T01:51:15.628Z,89.01
2022-10-07T01:54:02.137Z,89.87
2022-10-07T01:56:42.396Z,90.08
2022-10-07T01:59:43.183Z,89.59
2022-10-07T02:02:12.954Z,89.40
2022-10-07T02:05:01.615Z,89.69
2022-10-07T02:07:47.254Z,88.97
2022-10-07T02:10:35.860Z,89.01
2022-10-07T02:13:35.565Z,89.44
2022-10-07T02:16:11.093Z,88.75
2022-10-07T02:18:40.076Z,88.85
2022-10-07T02:21:08.967Z,88.96
2022-10-07T02:23:38.344Z,89.13
2022-10-07T02:26:08.209Z,89.51
2022-10-07T02:28:40.225Z,89.72
2022-10-07T02:31:11.114Z,89.33
2022-10-07T02:33:38.636Z,89.09
2022-10-07T02:36:11.451Z,89.21
2022-10-07T02:38:39.584Z,89.09
2022-10-07T02:41:15.091Z,88.97
2022-10-07T02:43:53.276Z,88.85
2022-10-07T02:46:22.954Z,88.80
2022-10-07T02:48:59.264Z,88.89
2022-10-07T02:51:33.566Z,88.77
2022-10-07T02:54:03.553Z,88.78
2022-10-07T02:56:32.742Z,88.39
2022-10-07T02:59:03.771Z,88.51
2022-10-07T03:01:37.354Z,88.81
2022-10-07T03:04:04.328Z,88.36
2022-10-07T03:06:30.700Z,88.21
2022-10-07T03:08:58.510Z,88.51
2022-10-07T03:11:24.815Z,88.87
2022-10-07T03:13:51.169Z,88.67
2022-10-07T03:16:18.195Z,88.79
2022-10-07T03:18:46.416Z,88.43
2022-10-07T03:21:12.841Z,88.25
2022-10-07T03:23:39.280Z,88.28
2022-10-07T03:26:05.724Z,88.12
2022-10-07T03:28:37.185Z,88.30
2022-10-07T03:31:08.965Z,87.95
2022-10-07T03:33:37.131Z,87.97
2022-10-07T03:36:05.648Z,87.48
2022-10-07T03:38:32.744Z,87.88
2022-10-07T03:41:01.732Z,87.55
2022-10-07T03:43:28.676Z,87.95
2022-10-07T03:45:57.392Z,87.91
2022-10-07T03:48:24.547Z,89.31
2022-10-07T03:50:52.139Z,89.09
2022-10-07T03:53:20.666Z,89.38
2022-10-07T03:55:47.106Z,88.23
2022-10-07T03:58:13.476Z,88.62
2022-10-07T04:00:41.657Z,89.00
2022-10-07T04:03:08.963Z,88.98
2022-10-07T04:05:36.806Z,88.78
2022-10-07T04:08:07.895Z,88.88
2022-10-07T04:10:34.510Z,88.93
2022-10-07T04:13:01.000Z,88.48
2022-10-07T04:15:27.770Z,88.88
2022-10-07T04:17:58.536Z,88.67
2022-10-07T04:20:25.992Z,89.24
2022-10-07T04:22:52.954Z,89.15
2022-10-07T04:25:48.727Z,89.14
2022-10-07T04:28:20.803Z,89.13
2022-10-07T04:30:51.246Z,88.49
2022-10-07T04:33:19.098Z,88.64
2022-10-07T04:35:46.043Z,89.37
2022-10-07T04:38:13.696Z,89.25
2022-10-07T04:40:45.424Z,89.60
2022-10-07T04:43:23.804Z,89.39
2022-10-07T04:45:59.929Z,89.42
2022-10-07T04:48:27.486Z,89.12
2022-10-07T04:50:54.686Z,88.96
2022-10-07T04:53:21.476Z,89.18
2022-10-07T04:55:50.568Z,89.34
2022-10-07T04:58:19.561Z,89.34
2022-10-07T05:00:48.574Z,89.65
2022-10-07T05:03:17.372Z,89.15
2022-10-07T05:05:45.734Z,89.15
2022-10-07T05:08:13.831Z,89.30
2022-10-07T05:10:41.235Z,89.50
2022-10-07T05:13:12.166Z,89.32
2022-10-07T05:15:48.239Z,89.63
2022-10-07T05:18:15.033Z,89.13
2022-10-07T05:20:43.285Z,89.34
2022-10-07T05:23:10.487Z,89.01
2022-10-07T05:25:36.820Z,89.27
2022-10-07T05:28:03.217Z,89.45
2022-10-07T05:30:30.174Z,89.74
2022-10-07T05:32:56.544Z,89.63
2022-10-07T05:35:22.953Z,89.45
2022-10-07T05:37:54.488Z,90.09
2022-10-07T05:40:21.455Z,89.81
2022-10-07T05:42:47.790Z,89.81
2022-10-07T05:45:14.572Z,89.38
2022-10-07T05:47:40.960Z,90.08
2022-10-07T05:50:08.247Z,89.82
2022-10-07T05:52:36.087Z,90.25
2022-10-07T05:55:02.480Z,90.35
2022-10-07T05:57:29.256Z,90.17
2022-10-07T05:59:56.526Z,90.27
2022-10-07T06:02:23.021Z,90.26
2022-10-07T06:04:49.942Z,89.99
2022-10-07T06:07:20.779Z,89.85
2022-10-07T06:10:07.372Z,89.16
2022-10-07T06:12:52.030Z,89.40
2022-10-07T06:15:18.756Z,89.24
2022-10-07T06:17:46.351Z,89.39
2022-10-07T06:20:14.978Z,89.15
2022-10-07T06:22:42.821Z,88.18
2022-10-07T06:25:09.738Z,88.48
2022-10-07T06:27:36.310Z,87.67
2022-10-07T06:30:03.093Z,86.87
2022-10-07T06:32:31.454Z,86.41
2022-10-07T06:34:57.792Z,87.11
2022-10-07T06:37:24.508Z,88.24
2022-10-07T06:39:50.912Z,86.99
2022-10-07T06:42:17.376Z,85.76
2022-10-07T06:44:44.228Z,83.50
2022-10-07T06:47:11.956Z,84.12
2022-10-07T06:49:38.880Z,82.17
2022-10-07T06:52:05.915Z,79.51
2022-10-07T06:54:32.247Z,77.13
2022-10-07T06:56:58.563Z,76.67
2022-10-07T06:59:25.268Z,76.46
2022-10-07T07:01:51.587Z,72.89
2022-10-07T07:04:18.412Z,71.22
2022-10-07T07:06:44.754Z,66.12
2022-10-07T07:09:11.065Z,64.02
2022-10-07T07:11:38.423Z,67.41
2022-10-07T07:14:05.471Z,66.30
2022-10-07T07:16:32.648Z,69.31
2022-10-07T07:19:05.406Z,68.83
2022-10-07T07:21:33.607Z,69.01
2022-10-07T07:24:01.210Z,64.64
2022-10-07T07:26:28.498Z,62.07
2022-10-07T07:29:01.182Z,58.69
2022-10-07T07:31:30.169Z,58.30
2022-10-07T07:33:57.494Z,56.55
2022-10-07T07:36:25.433Z,54.32
2022-10-07T07:38:54.627Z,53.82
2022-10-07T07:41:30.551Z,54.57
2022-10-07T07:43:59.657Z,55.97
2022-10-07T07:46:29.640Z,53.74
2022-10-07T07:48:56.369Z,52.70
2022-10-07T07:51:23.172Z,51.90
2022-10-07T07:53:52.402Z,56.36
2022-10-07T07:56:19.895Z,55.97
2022-10-07T07:58:46.772Z,54.33
2022-10-07T08:01:16.159Z,51.75
2022-10-07T08:03:44.263Z,56.04
2022-10-07T08:06:12.522Z,54.42
2022-10-07T08:08:40.013Z,55.59
2022-10-07T08:11:17.696Z,56.84
2022-10-07T08:13:44.955Z,57.57
2022-10-07T08:16:18.451Z,60.83
2022-10-07T08:18:47.287Z,58.46
2022-10-07T08:21:15.507Z,61.29
2022-10-07T08:23:42.259Z,61.42
2022-10-07T08:26:09.821Z,58.41
2022-10-07T08:28:37.393Z,58.57
2022-10-07T08:31:11.020Z,61.46
2022-10-07T08:33:39.635Z,57.68
2022-10-07T08:36:07.875Z,60.89
2022-10-07T08:38:37.376Z,61.72
2022-10-07T08:41:09.850Z,59.78
2022-10-07T08:43:44.332Z,55.82
2022-10-07T08:46:16.883Z,53.87
2022-10-07T08:48:52.527Z,56.60
2022-10-07T08:51:24.587Z,61.29
2022-10-07T08:53:55.506Z,63.78
2022-10-07T08:56:24.415Z,58.81
2022-10-07T08:59:12.833Z,60.43
2022-10-07T09:02:03.703Z,62.16
2022-10-07T09:04:48.875Z,61.74
2022-10-07T09:07:31.708Z,60.01
2022-10-07T09:10:25.384Z,60.59
2022-10-07T09:13:02.312Z,64.26
2022-10-07T09:15:38.384Z,63.75
2022-10-07T09:18:15.043Z,64.64
2022-10-07T09:20:45.642Z,66.20
2022-10-07T09:23:15.393Z,66.03
2022-10-07T09:25:42.375Z,66.08
2022-10-07T09:28:19.140Z,65.97
2022-10-07T09:30:45.600Z,68.72
2022-10-07T09:33:19.050Z,65.79
2022-10-07T09:35:57.670Z,67.03
2022-10-07T09:38:32.897Z,67.21
2022-10-07T09:41:16.822Z,67.83
2022-10-07T09:43:55.802Z,68.61
2022-10-07T09:46:29.691Z,67.97
2022-10-07T09:48:56.274Z,67.84
2022-10-07T09:51:27.461Z,67.45
2022-10-07T09:54:03.095Z,62.54
2022-10-07T09:56:32.180Z,61.52
2022-10-07T09:59:19.447Z,64.16
2022-10-07T10:01:50.351Z,65.91
2022-10-07T10:04:25.708Z,67.32
2022-10-07T10:06:52.768Z,62.72
2022-10-07T10:09:24.523Z,67.78
2022-10-07T10:12:13.548Z,67.02
2022-10-07T10:14:47.355Z,67.39
2022-10-07T10:17:34.468Z,66.93
2022-10-07T10:20:32.436Z,66.62
2022-10-07T10:23:01.875Z,66.37
2022-10-07T10:25:49.628Z,67.54
2022-10-07T10:28:34.295Z,66.95
2022-10-07T10:31:18.052Z,62.88
2022-10-07T10:33:57.361Z,61.20
2022-10-07T10:36:24.116Z,65.91
2022-10-07T10:39:06.363Z,63.56
2022-10-07T10:41:47.083Z,58.60
2022-10-07T10:44:21.127Z,62.46
2022-10-07T10:47:11.827Z,66.49
2022-10-07T10:49:45.236Z,68.91
2022-10-07T10:52:54.287Z,69.85
2022-10-07T10:55:42.963Z,70.57
2022-10-07T10:58:09.220Z,68.67
2022-10-07T11:00:50.500Z,64.28
2022-10-07T11:03:24.383Z,65.05
2022-10-07T11:05:53.056Z,68.02
2022-10-07T11:08:27.494Z,68.35
2022-10-07T11:11:00.416Z,65.28
2022-10-07T11:13:33.119Z,68.26
2022-10-07T11:16:07.887Z,67.67
2022-10-07T11:18:41.132Z,68.46
2022-10-07T11:21:15.068Z,67.93
2022-10-07T11:23:51.566Z,66.71
2022-10-07T11:26:34.819Z,67.90
2022-10-07T11:29:11.588Z,71.13
2022-10-07T11:31:42.771Z,68.39
2022-10-07T11:34:35.487Z,70.03
2022-10-07T11:37:29.604Z,70.71
2022-10-07T11:39:56.170Z,68.52
2022-10-07T11:42:34.114Z,66.62
2022-10-07T11:45:08.472Z,69.33
2022-10-07T11:47:41.373Z,69.50
2022-10-07T11:50:20.227Z,68.60
2022-10-07T11:52:50.162Z,68.83
2022-10-07T11:55:29.744Z,68.30
2022-10-07T11:57:59.389Z,67.41
2022-10-07T12:00:32.732Z,68.58
2022-10-07T12:03:25.608Z,68.09
2022-10-07T12:05:53.594Z,66.58
2022-10-07T12:08:34.620Z,66.54
2022-10-07T12:11:25.023Z,65.43
2022-10-07T12:13:52.652Z,68.39
2022-10-07T12:16:28.423Z,66.18
2022-10-07T12:19:07.148Z,64.08
2022-10-07T12:22:11.713Z,69.46
2022-10-07T12:24:42.661Z,70.90
2022-10-07T12:27:26.523Z,69.03
2022-10-07T12:29:58.638Z,68.81
2022-10-07T12:32:48.037Z,67.98
2022-10-07T12:35:29.723Z,70.15
2022-10-07T12:38:41.638Z,68.60
2022-10-07T12:41:25.008Z,70.02
2022-10-07T12:44:16.380Z,71.55
2022-10-07T12:46:51.531Z,70.95
2022-10-07T12:49:42.831Z,72.14
2022-10-07T12:52:19.797Z,72.23
2022-10-07T12:54:54.473Z,72.13
2022-10-07T12:57:24.411Z,73.56
2022-10-07T13:00:12.147Z,72.84
2022-10-07T13:02:54.285Z,74.49
2022-10-07T13:05:39.163Z,75.45
2022-10-07T13:08:07.026Z,75.78
2022-10-07T13:11:10.858Z,75.72
2022-10-07T13:13:48.723Z,75.89
2022-10-07T13:16:39.793Z,74.85
2022-10-07T13:19:35.624Z,74.74
2022-10-07T13:22:15.424Z,73.69
2022-10-07T13:24:48.411Z,75.11
2022-10-07T13:27:25.291Z,75.41
2022-10-07T13:29:53.571Z,74.13
2022-10-07T13:32:29.658Z,74.69
2022-10-07T13:35:01.847Z,74.39
2022-10-07T13:37:34.727Z,73.76
2022-10-07T13:40:20.118Z,71.70
2022-10-07T13:42:53.881Z,71.35
2022-10-07T13:45:21.052Z,71.31
2022-10-07T13:47:47.783Z,72.18
2022-10-07T13:50:25.175Z,73.98
2022-10-07T13:52:53.592Z,75.12
2022-10-07T13:55:26.456Z,75.78
2022-10-07T13:57:57.641Z,76.28
2022-10-07T14:00:25.090Z,75.01
2022-10-07T14:02:51.885Z,75.29
2022-10-07T14:05:28.147Z,74.79
2022-10-07T14:07:56.815Z,75.24
2022-10-07T14:10:26.202Z,76.08
2022-10-07T14:12:58.734Z,77.15
2022-10-07T14:15:29.063Z,76.08
2022-10-07T14:18:04.560Z,75.95
2022-10-07T14:20:34.351Z,76.50
2022-10-07T14:23:04.485Z,76.75
2022-10-07T14:25:37.601Z,77.19
2022-10-07T14:28:29.972Z,77.89
2022-10-07T14:31:28.101Z,77.12
2022-10-07T14:34:33.195Z,76.36
2022-10-07T14:37:17.511Z,76.05
2022-10-07T14:39:48.786Z,73.47
2022-10-07T14:42:20.081Z,71.86
2022-10-07T14:44:46.947Z,73.18
2022-10-07T14:47:16.017Z,75.64
2022-10-07T14:49:42.844Z,74.64
2022-10-07T14:52:17.385Z,75.49
2022-10-07T14:54:44.314Z,75.35
2022-10-07T14:57:10.619Z,75.56
2022-10-07T14:59:38.344Z,78.23
2022-10-07T15:02:04.740Z,77.42
2022-10-07T15:04:31.194Z,78.03
2022-10-07T15:06:58.450Z,78.24
2022-10-07T15:09:24.780Z,77.08
2022-10-07T15:11:51.128Z,78.38
2022-10-07T15:14:17.823Z,78.49
2022-10-07T15:16:44.216Z,79.28
2022-10-07T15:19:10.584Z,79.04
2022-10-07T15:21:37.291Z,79.12
2022-10-07T15:24:04.367Z,79.92
2022-10-07T15:26:31.062Z,80.12
2022-10-07T15:28:58.954Z,79.63
2022-10-07T15:31:28.038Z,79.89
2022-10-07T15:33:57.584Z,80.33
2022-10-07T15:36:25.527Z,80.06
2022-10-07T15:38:52.441Z,80.53
2022-10-07T15:41:34.385Z,80.42
2022-10-07T15:44:06.440Z,80.94
2022-10-07T15:46:33.801Z,81.50
2022-10-07T15:49:00.588Z,82.08
2022-10-07T15:51:27.931Z,81.37
2022-10-07T15:53:55.643Z,80.80
2022-10-07T15:56:22.603Z,81.12
2022-10-07T15:58:49.400Z,80.61
2022-10-07T16:01:15.864Z,81.73
2022-10-07T16:03:44.920Z,80.93
2022-10-07T16:06:18.200Z,81.04
2022-10-07T16:08:44.555Z,81.52
2022-10-07T16:11:12.583Z,81.37
2022-10-07T16:13:41.928Z,81.30
2022-10-07T16:16:15.535Z,81.43
2022-10-07T16:18:46.342Z,82.57
2022-10-07T16:21:15.073Z,82.38
2022-10-07T16:23:46.055Z,81.64
2022-10-07T16:26:19.410Z,81.64
2022-10-07T16:29:06.384Z,82.32
2022-10-07T16:31:34.921Z,83.22
2022-10-07T16:34:03.278Z,82.30
2022-10-07T16:36:30.643Z,83.20
2022-10-07T16:38:59.645Z,82.58
2022-10-07T16:41:26.429Z,82.89
2022-10-07T16:43:52.741Z,82.34
2022-10-07T16:46:20.648Z,82.94
2022-10-07T16:48:49.438Z,82.88
2022-10-07T16:51:21.607Z,83.38
2022-10-07T16:53:50.271Z,83.47
2022-10-07T16:56:19.079Z,83.79
2022-10-07T16:58:47.225Z,84.04
2022-10-07T17:01:16.089Z,84.13
2022-10-07T17:03:46.543Z,83.29
2022-10-07T17:06:14.884Z,83.36
2022-10-07T17:08:47.431Z,83.50
2022-10-07T17:11:30.243Z,83.68
2022-10-07T17:14:03.310Z,83.88
2022-10-07T17:16:37.117Z,82.75
2022-10-07T17:19:05.737Z,83.15
2022-10-07T17:21:33.059Z,82.62
2022-10-07T17:23:59.824Z,82.98
2022-10-07T17:26:27.035Z,83.43
2022-10-07T17:28:58.684Z,83.11
2022-10-07T17:31:25.819Z,82.52
2022-10-07T17:33:52.278Z,83.02
2022-10-07T17:36:21.138Z,83.27
2022-10-07T17:38:48.156Z,82.94
2022-10-07T17:41:20.474Z,83.40
2022-10-07T17:43:48.007Z,83.31
2022-10-07T17:46:17.651Z,82.85
2022-10-07T17:48:45.951Z,82.64
2022-10-07T17:51:15.108Z,83.55
2022-10-07T17:53:43.003Z,83.54
2022-10-07T17:56:11.176Z,83.55
2022-10-07T17:58:39.656Z,83.66
2022-10-07T18:01:31.677Z,84.12
2022-10-07T18:04:00.967Z,84.07
2022-10-07T18:06:30.284Z,83.62
2022-10-07T18:09:02.525Z,83.16
2022-10-07T18:11:49.258Z,83.56
2022-10-07T18:14:34.555Z,83.44
2022-10-07T18:17:01.557Z,84.39
2022-10-07T18:19:30.084Z,85.01
2022-10-07T18:21:56.767Z,84.69
2022-10-07T18:24:24.141Z,84.64
2022-10-07T18:26:50.792Z,84.29
2022-10-07T18:29:18.339Z,84.42
2022-10-07T18:31:44.696Z,84.57
2022-10-07T18:34:11.894Z,85.15
2022-10-07T18:36:38.354Z,85.36
2022-10-07T18:39:08.166Z,85.03
2022-10-07T18:41:34.535Z,85.34
2022-10-07T18:44:01.215Z,85.37
2022-10-07T18:46:27.527Z,85.83
2022-10-07T18:48:54.694Z,85.90
2022-10-07T18:51:21.606Z,85.94
2022-10-07T18:53:48.071Z,86.26
2022-10-07T18:56:24.580Z,87.42
2022-10-07T18:58:52.405Z,87.13
2022-10-07T19:01:20.580Z,86.92
2022-10-07T19:03:49.455Z,86.89
2022-10-07T19:06:20.493Z,89.03
2022-10-07T19:08:47.224Z,88.34
2022-10-07T19:11:17.382Z,87.74
2022-10-07T19:13:48.298Z,88.00
2022-10-07T19:16:18.917Z,88.81
2022-10-07T19:18:46.349Z,88.50
2022-10-07T19:21:14.147Z,88.02
2022-10-07T19:23:41.466Z,87.90
2022-10-07T19:26:08.604Z,89.64
2022-10-07T19:28:37.938Z,90.08
2022-10-07T19:31:16.174Z,89.38
2022-10-07T19:33:44.520Z,88.93
2022-10-07T19:36:12.697Z,89.02
2022-10-07T19:38:44.699Z,89.01
2022-10-07T19:41:13.199Z,88.59
2022-10-07T19:43:40.701Z,88.74
2022-10-07T19:46:08.529Z,89.12
2022-10-07T19:48:36.479Z,89.60
2022-10-07T19:51:06.008Z,88.51
2022-10-07T19:53:37.252Z,89.37
2022-10-07T19:56:10.343Z,89.83
2022-10-07T19:58:38.612Z,90.13
2022-10-07T20:01:10.566Z,89.68
2022-10-07T20:03:37.130Z,90.21
2022-10-07T20:06:07.420Z,90.10
2022-10-07T20:08:45.369Z,90.23
2022-10-07T20:11:12.609Z,90.54
2022-10-07T20:13:40.088Z,89.88
2022-10-07T20:16:07.817Z,90.17
2022-10-07T20:18:35.339Z,89.67
2022-10-07T20:21:06.080Z,88.86
2022-10-07T20:23:33.505Z,88.49
2022-10-07T20:26:19.571Z,88.90
2022-10-07T20:28:50.229Z,88.80
2022-10-07T20:31:21.197Z,89.11
2022-10-07T20:33:50.119Z,88.92
2022-10-07T20:36:22.786Z,89.22
2022-10-07T20:39:17.026Z,89.50
2022-10-07T20:42:02.419Z,89.65
2022-10-07T20:44:28.808Z,89.13
2022-10-07T20:46:57.115Z,89.41
2022-10-07T20:49:28.564Z,88.83
2022-10-07T20:52:03.808Z,88.82
2022-10-07T20:54:31.559Z,89.29
2022-10-07T20:56:58.849Z,88.90
2022-10-07T20:59:27.590Z,88.72
2022-10-07T21:01:54.542Z,88.69
2022-10-07T21:04:21.547Z,88.79
2022-10-07T21:06:51.546Z,89.62
2022-10-07T21:09:19.834Z,89.57
2022-10-07T21:11:47.605Z,89.69
2022-10-07T21:14:14.898Z,89.38
2022-10-07T21:16:42.391Z,89.51
2022-10-07T21:19:09.098Z,89.74
2022-10-07T21:21:35.446Z,90.89
2022-10-07T21:24:02.426Z,91.16
2022-10-07T21:26:28.759Z,91.09
2022-10-07T21:28:55.154Z,90.56
2022-10-07T21:31:22.811Z,89.88
2022-10-07T21:33:50.651Z,90.14
2022-10-07T21:36:20.800Z,89.18
2022-10-07T21:38:53.656Z,89.94
2022-10-07T21:41:22.952Z,89.73
2022-10-07T21:43:55.946Z,89.34
2022-10-07T21:46:23.649Z,89.36
2022-10-07T21:48:50.609Z,89.57
2022-10-07T21:51:17.571Z,89.41
2022-10-07T21:53:45.651Z,89.50
2022-10-07T21:56:13.404Z,89.76
2022-10-07T21:58:40.348Z,90.71
2022-10-07T22:01:11.628Z,91.01
2022-10-07T22:03:38.031Z,92.15
2022-10-07T22:06:07.405Z,92.13
2022-10-07T22:08:37.153Z,92.13
2022-10-07T22:11:17.410Z,92.74
2022-10-07T22:13:51.689Z,93.07
2022-10-07T22:16:19.767Z,92.51
2022-10-07T22:18:51.099Z,91.82
2022-10-07T22:21:29.242Z,91.37
2022-10-07T22:24:00.896Z,90.98
2022-10-07T22:26:31.895Z,91.00
2022-10-07T22:28:58.383Z,90.79
2022-10-07T22:31:26.142Z,90.74
2022-10-07T22:33:56.700Z,91.05
2022-10-07T22:36:23.450Z,91.53
2022-10-07T22:38:50.616Z,91.84
2022-10-07T22:41:18.348Z,91.60
2022-10-07T22:43:47.182Z,91.12
2022-10-07T22:46:19.544Z,90.90
2022-10-07T22:48:49.072Z,90.97
2022-10-07T22:51:16.305Z,91.06
2022-10-07T22:53:48.492Z,90.94
2022-10-07T22:56:17.481Z,90.99
2022-10-07T22:58:50.747Z,90.86
2022-10-07T23:01:17.648Z,90.74
2022-10-07T23:03:44.767Z,91.34
2022-10-07T23:06:14.276Z,91.08
2022-10-07T23:08:41.048Z,91.67
2022-10-07T23:11:08.206Z,92.04
2022-10-07T23:13:37.213Z,92.53
2022-10-07T23:16:06.753Z,93.37
2022-10-07T23:18:33.308Z,93.25
2022-10-07T23:21:09.297Z,92.66
2022-10-07T23:23:37.221Z,92.60
2022-10-07T23:26:15.961Z,91.71
2022-10-07T23:28:42.460Z,91.16
2022-10-07T23:31:11.658Z,91.99
2022-10-07T23:33:39.012Z,92.33
2022-10-07T23:36:10.298Z,93.32
2022-10-07T23:38:47.112Z,92.58
2022-10-07T23:41:19.961Z,93.07
2022-10-07T23:43:51.322Z,93.30
2022-10-07T23:46:19.059Z,93.02
2022-10-07T23:48:46.792Z,93.35
2022-10-07T23:51:16.940Z,92.92
2022-10-07T23:53:43.348Z,93.13
2022-10-07T23:56:09.955Z,93.93
2022-10-07T23:58:37.402Z,93.75
